sensor_id;sensor_type;location;lat;lon;timestamp;temperature;humidity
37356;DHT22;48747;50.250;18.848;2023-08-06T00:01:37;18.40;99.90
37356;DHT22;48747;50.250;18.848;2023-08-06T00:03:40;18.40;99.90
37356;DHT22;48747;50.250;18.848;2023-08-06T00:05:43;18.40;99.90
37356;DHT22;48747;50.250;18.848;2023-08-06T00:07:51;18.40;99.90
37356;DHT22;48747;50.250;18.848;2023-08-06T00:09:51;18.40;99.90
37356;DHT22;48747;50.250;18.848;2023-08-06T00:11:54;18.50;99.90
37356;DHT22;48747;50.250;18.848;2023-08-06T00:13:57;18.40;99.90
37356;DHT22;48747;50.250;18.848;2023-08-06T00:16:13;18.40;99.90
37356;DHT22;48747;50.250;18.848;2023-08-06T00:18:12;18.40;99.90
37356;DHT22;48747;50.250;18.848;2023-08-06T00:20:15;18.40;99.90
37356;DHT22;48747;50.250;18.848;2023-08-06T00:22:18;18.40;99.90
37356;DHT22;48747;50.250;18.848;2023-08-06T00:24:21;18.40;99.90
37356;DHT22;48747;50.250;18.848;2023-08-06T00:26:24;18.40;99.90
37356;DHT22;48747;50.250;18.848;2023-08-06T00:28:27;18.40;99.90
37356;DHT22;48747;50.250;18.848;2023-08-06T00:30:30;18.40;99.90
37356;DHT22;48747;50.250;18.848;2023-08-06T00:32:34;18.50;99.90
37356;DHT22;48747;50.250;18.848;2023-08-06T00:34:37;18.40;99.90
37356;DHT22;48747;50.250;18.848;2023-08-06T00:36:40;18.40;99.90
37356;DHT22;48747;50.250;18.848;2023-08-06T00:38:43;18.40;99.90
37356;DHT22;48747;50.250;18.848;2023-08-06T00:40:46;18.40;99.90
37356;DHT22;48747;50.250;18.848;2023-08-06T00:42:49;18.40;99.90
37356;DHT22;48747;50.250;18.848;2023-08-06T00:44:52;18.40;99.90
37356;DHT22;48747;50.250;18.848;2023-08-06T00:46:56;18.40;99.90
37356;DHT22;48747;50.250;18.848;2023-08-06T00:48:59;18.30;99.90
37356;DHT22;48747;50.250;18.848;2023-08-06T00:51:02;18.40;99.90
37356;DHT22;48747;50.250;18.848;2023-08-06T00:53:06;18.30;99.90
37356;DHT22;48747;50.250;18.848;2023-08-06T00:55:10;18.30;99.90
37356;DHT22;48747;50.250;18.848;2023-08-06T00:57:13;18.30;99.90
37356;DHT22;48747;50.250;18.848;2023-08-06T00:59:17;18.30;99.90
37356;DHT22;48747;50.250;18.848;2023-08-06T01:01:20;18.30;99.90
37356;DHT22;48747;50.250;18.848;2023-08-06T01:03:23;18.40;99.90
37356;DHT22;48747;50.250;18.848;2023-08-06T01:05:26;18.40;99.90
37356;DHT22;48747;50.250;18.848;2023-08-06T01:10:23;18.40;99.90
37356;DHT22;48747;50.250;18.848;2023-08-06T01:15:15;18.40;99.90
37356;DHT22;48747;50.250;18.848;2023-08-06T01:17:20;18.50;99.90
37356;DHT22;48747;50.250;18.848;2023-08-06T01:19:24;18.40;99.90
37356;DHT22;48747;50.250;18.848;2023-08-06T01:21:27;18.50;99.90
37356;DHT22;48747;50.250;18.848;2023-08-06T01:23:30;18.50;99.90
37356;DHT22;48747;50.250;18.848;2023-08-06T01:25:56;18.40;99.90
37356;DHT22;48747;50.250;18.848;2023-08-06T01:28:06;18.40;99.90
37356;DHT22;48747;50.250;18.848;2023-08-06T01:30:16;18.40;99.90
37356;DHT22;48747;50.250;18.848;2023-08-06T01:32:16;18.40;99.90
37356;DHT22;48747;50.250;18.848;2023-08-06T01:34:25;18.40;99.90
37356;DHT22;48747;50.250;18.848;2023-08-06T01:36:28;18.40;99.90
37356;DHT22;48747;50.250;18.848;2023-08-06T01:38:32;18.40;99.90
37356;DHT22;48747;50.250;18.848;2023-08-06T01:40:36;18.40;99.90
37356;DHT22;48747;50.250;18.848;2023-08-06T01:42:39;18.40;99.90
37356;DHT22;48747;50.250;18.848;2023-08-06T01:44:42;18.40;99.90
37356;DHT22;48747;50.250;18.848;2023-08-06T01:46:45;18.50;99.90
37356;DHT22;48747;50.250;18.848;2023-08-06T01:48:48;18.50;99.90
37356;DHT22;48747;50.250;18.848;2023-08-06T01:50:51;18.50;99.90
37356;DHT22;48747;50.250;18.848;2023-08-06T01:52:54;18.50;99.90
37356;DHT22;48747;50.250;18.848;2023-08-06T01:54:57;18.60;99.90
37356;DHT22;48747;50.250;18.848;2023-08-06T01:57:00;18.60;99.90
37356;DHT22;48747;50.250;18.848;2023-08-06T01:59:04;18.50;99.90
37356;DHT22;48747;50.250;18.848;2023-08-06T02:01:07;18.60;99.90
37356;DHT22;48747;50.250;18.848;2023-08-06T02:03:10;18.60;99.90
37356;DHT22;48747;50.250;18.848;2023-08-06T02:05:13;18.60;99.90
37356;DHT22;48747;50.250;18.848;2023-08-06T02:07:16;18.60;99.90
37356;DHT22;48747;50.250;18.848;2023-08-06T02:09:19;18.50;99.90
37356;DHT22;48747;50.250;18.848;2023-08-06T02:11:22;18.50;99.90
37356;DHT22;48747;50.250;18.848;2023-08-06T02:13:25;18.50;99.90
37356;DHT22;48747;50.250;18.848;2023-08-06T02:15:28;18.50;99.90
37356;DHT22;48747;50.250;18.848;2023-08-06T02:17:31;18.50;99.90
37356;DHT22;48747;50.250;18.848;2023-08-06T02:19:34;18.50;99.90
37356;DHT22;48747;50.250;18.848;2023-08-06T02:21:37;18.50;99.90
37356;DHT22;48747;50.250;18.848;2023-08-06T02:23:40;18.50;99.90
37356;DHT22;48747;50.250;18.848;2023-08-06T02:25:43;18.50;99.90
37356;DHT22;48747;50.250;18.848;2023-08-06T02:27:46;18.50;99.90
37356;DHT22;48747;50.250;18.848;2023-08-06T02:29:49;18.50;99.90
37356;DHT22;48747;50.250;18.848;2023-08-06T02:31:52;18.50;99.90
37356;DHT22;48747;50.250;18.848;2023-08-06T02:33:55;18.50;99.90
37356;DHT22;48747;50.250;18.848;2023-08-06T02:36:00;18.60;99.90
37356;DHT22;48747;50.250;18.848;2023-08-06T02:38:03;18.50;99.90
37356;DHT22;48747;50.250;18.848;2023-08-06T02:40:07;18.50;99.90
37356;DHT22;48747;50.250;18.848;2023-08-06T02:42:10;18.50;99.90
37356;DHT22;48747;50.250;18.848;2023-08-06T02:44:13;18.50;99.90
37356;DHT22;48747;50.250;18.848;2023-08-06T02:46:16;18.50;99.90
37356;DHT22;48747;50.250;18.848;2023-08-06T02:48:19;18.50;99.90
37356;DHT22;48747;50.250;18.848;2023-08-06T02:50:22;18.50;99.90
37356;DHT22;48747;50.250;18.848;2023-08-06T02:52:25;18.50;99.90
37356;DHT22;48747;50.250;18.848;2023-08-06T02:54:28;18.50;99.90
37356;DHT22;48747;50.250;18.848;2023-08-06T02:56:31;18.50;99.90
37356;DHT22;48747;50.250;18.848;2023-08-06T02:58:34;18.50;99.90
37356;DHT22;48747;50.250;18.848;2023-08-06T03:00:37;18.50;99.90
37356;DHT22;48747;50.250;18.848;2023-08-06T03:02:40;18.60;99.90
37356;DHT22;48747;50.250;18.848;2023-08-06T03:04:43;18.50;99.90
37356;DHT22;48747;50.250;18.848;2023-08-06T03:06:46;18.60;99.90
37356;DHT22;48747;50.250;18.848;2023-08-06T03:08:49;18.60;99.90
37356;DHT22;48747;50.250;18.848;2023-08-06T03:10:53;18.50;99.90
37356;DHT22;48747;50.250;18.848;2023-08-06T03:12:56;18.60;99.90
37356;DHT22;48747;50.250;18.848;2023-08-06T03:14:59;18.60;99.90
37356;DHT22;48747;50.250;18.848;2023-08-06T03:17:02;18.60;99.90
37356;DHT22;48747;50.250;18.848;2023-08-06T03:19:05;18.60;99.90
37356;DHT22;48747;50.250;18.848;2023-08-06T03:21:08;18.60;99.90
37356;DHT22;48747;50.250;18.848;2023-08-06T03:23:11;18.60;99.90
37356;DHT22;48747;50.250;18.848;2023-08-06T03:25:14;18.60;99.90
37356;DHT22;48747;50.250;18.848;2023-08-06T03:27:17;18.60;99.90
37356;DHT22;48747;50.250;18.848;2023-08-06T03:29:20;18.70;99.90
37356;DHT22;48747;50.250;18.848;2023-08-06T03:31:24;18.70;99.90
37356;DHT22;48747;50.250;18.848;2023-08-06T03:33:27;18.70;99.90
37356;DHT22;48747;50.250;18.848;2023-08-06T03:35:30;18.70;99.90
37356;DHT22;48747;50.250;18.848;2023-08-06T03:37:33;18.80;99.90
37356;DHT22;48747;50.250;18.848;2023-08-06T03:39:36;18.70;99.90
37356;DHT22;48747;50.250;18.848;2023-08-06T03:41:40;18.70;99.90
37356;DHT22;48747;50.250;18.848;2023-08-06T03:43:43;18.80;99.90
37356;DHT22;48747;50.250;18.848;2023-08-06T03:45:46;18.70;99.90
37356;DHT22;48747;50.250;18.848;2023-08-06T03:47:49;18.70;99.90
37356;DHT22;48747;50.250;18.848;2023-08-06T03:49:52;18.70;99.90
37356;DHT22;48747;50.250;18.848;2023-08-06T03:51:55;18.70;99.90
37356;DHT22;48747;50.250;18.848;2023-08-06T03:53:58;18.80;99.90
37356;DHT22;48747;50.250;18.848;2023-08-06T03:56:01;18.80;99.90
37356;DHT22;48747;50.250;18.848;2023-08-06T03:58:04;18.80;99.90
37356;DHT22;48747;50.250;18.848;2023-08-06T04:00:07;18.80;99.90
37356;DHT22;48747;50.250;18.848;2023-08-06T04:02:11;18.90;99.90
37356;DHT22;48747;50.250;18.848;2023-08-06T04:04:14;18.90;99.90
37356;DHT22;48747;50.250;18.848;2023-08-06T04:06:17;18.90;99.90
37356;DHT22;48747;50.250;18.848;2023-08-06T04:08:20;18.90;99.90
37356;DHT22;48747;50.250;18.848;2023-08-06T04:10:23;18.90;99.90
37356;DHT22;48747;50.250;18.848;2023-08-06T04:12:27;18.90;99.90
37356;DHT22;48747;50.250;18.848;2023-08-06T04:14:30;18.90;99.90
37356;DHT22;48747;50.250;18.848;2023-08-06T04:16:33;18.90;99.90
37356;DHT22;48747;50.250;18.848;2023-08-06T04:18:36;18.80;99.90
37356;DHT22;48747;50.250;18.848;2023-08-06T04:20:46;18.90;99.90
37356;DHT22;48747;50.250;18.848;2023-08-06T04:22:53;18.80;99.90
37356;DHT22;48747;50.250;18.848;2023-08-06T04:24:55;18.80;99.90
37356;DHT22;48747;50.250;18.848;2023-08-06T04:26:58;18.80;99.90
37356;DHT22;48747;50.250;18.848;2023-08-06T04:29:01;18.70;99.90
37356;DHT22;48747;50.250;18.848;2023-08-06T04:31:04;18.70;99.90
37356;DHT22;48747;50.250;18.848;2023-08-06T04:33:08;18.70;99.90
37356;DHT22;48747;50.250;18.848;2023-08-06T04:35:11;18.70;99.90
37356;DHT22;48747;50.250;18.848;2023-08-06T04:37:14;18.60;99.90
37356;DHT22;48747;50.250;18.848;2023-08-06T04:39:17;18.60;99.90
37356;DHT22;48747;50.250;18.848;2023-08-06T04:41:20;18.50;99.90
37356;DHT22;48747;50.250;18.848;2023-08-06T04:43:23;18.50;99.90
37356;DHT22;48747;50.250;18.848;2023-08-06T04:45:26;18.50;99.90
37356;DHT22;48747;50.250;18.848;2023-08-06T04:47:29;18.40;99.90
37356;DHT22;48747;50.250;18.848;2023-08-06T04:49:32;18.30;99.90
37356;DHT22;48747;50.250;18.848;2023-08-06T04:51:35;18.30;99.90
37356;DHT22;48747;50.250;18.848;2023-08-06T04:53:38;18.30;99.90
37356;DHT22;48747;50.250;18.848;2023-08-06T04:55:41;18.30;99.90
37356;DHT22;48747;50.250;18.848;2023-08-06T04:57:44;18.30;99.90
37356;DHT22;48747;50.250;18.848;2023-08-06T04:59:48;18.20;99.90
37356;DHT22;48747;50.250;18.848;2023-08-06T05:01:51;18.20;99.90
37356;DHT22;48747;50.250;18.848;2023-08-06T05:03:54;18.20;99.90
37356;DHT22;48747;50.250;18.848;2023-08-06T05:05:57;18.20;99.90
37356;DHT22;48747;50.250;18.848;2023-08-06T05:08:00;18.20;99.90
37356;DHT22;48747;50.250;18.848;2023-08-06T05:10:03;18.10;99.90
37356;DHT22;48747;50.250;18.848;2023-08-06T05:12:06;18.10;99.90
37356;DHT22;48747;50.250;18.848;2023-08-06T05:14:09;18.00;99.90
37356;DHT22;48747;50.250;18.848;2023-08-06T05:16:12;18.00;99.90
37356;DHT22;48747;50.250;18.848;2023-08-06T05:18:15;17.90;99.90
37356;DHT22;48747;50.250;18.848;2023-08-06T05:20:19;17.80;99.90
37356;DHT22;48747;50.250;18.848;2023-08-06T05:22:22;17.80;99.90
37356;DHT22;48747;50.250;18.848;2023-08-06T05:24:25;17.70;99.90
37356;DHT22;48747;50.250;18.848;2023-08-06T05:26:30;17.70;99.90
37356;DHT22;48747;50.250;18.848;2023-08-06T05:28:33;17.60;99.90
37356;DHT22;48747;50.250;18.848;2023-08-06T05:30:41;17.60;99.90
37356;DHT22;48747;50.250;18.848;2023-08-06T05:32:44;17.60;99.90
37356;DHT22;48747;50.250;18.848;2023-08-06T05:34:47;17.50;99.90
37356;DHT22;48747;50.250;18.848;2023-08-06T05:36:50;17.50;99.90
37356;DHT22;48747;50.250;18.848;2023-08-06T05:38:54;17.40;99.90
37356;DHT22;48747;50.250;18.848;2023-08-06T05:40:57;17.40;99.90
37356;DHT22;48747;50.250;18.848;2023-08-06T05:43:00;17.40;99.90
37356;DHT22;48747;50.250;18.848;2023-08-06T05:45:04;17.30;99.90
37356;DHT22;48747;50.250;18.848;2023-08-06T05:47:07;17.30;99.90
37356;DHT22;48747;50.250;18.848;2023-08-06T05:49:10;17.20;99.90
37356;DHT22;48747;50.250;18.848;2023-08-06T05:51:15;17.20;99.90
37356;DHT22;48747;50.250;18.848;2023-08-06T05:53:21;17.10;99.90
37356;DHT22;48747;50.250;18.848;2023-08-06T05:55:24;17.10;99.90
37356;DHT22;48747;50.250;18.848;2023-08-06T05:57:27;17.00;99.90
37356;DHT22;48747;50.250;18.848;2023-08-06T05:59:32;17.00;99.90
37356;DHT22;48747;50.250;18.848;2023-08-06T06:01:35;16.90;99.90
37356;DHT22;48747;50.250;18.848;2023-08-06T06:03:38;16.90;99.90
37356;DHT22;48747;50.250;18.848;2023-08-06T06:05:41;16.90;99.90
37356;DHT22;48747;50.250;18.848;2023-08-06T06:07:44;16.90;99.90
37356;DHT22;48747;50.250;18.848;2023-08-06T06:09:47;16.90;99.90
37356;DHT22;48747;50.250;18.848;2023-08-06T06:11:52;16.90;99.90
37356;DHT22;48747;50.250;18.848;2023-08-06T06:13:55;16.90;99.90
37356;DHT22;48747;50.250;18.848;2023-08-06T06:15:58;16.80;99.90
37356;DHT22;48747;50.250;18.848;2023-08-06T06:18:01;16.80;99.90
37356;DHT22;48747;50.250;18.848;2023-08-06T06:20:05;16.80;99.90
37356;DHT22;48747;50.250;18.848;2023-08-06T06:22:24;16.70;99.90
37356;DHT22;48747;50.250;18.848;2023-08-06T06:24:19;16.70;99.90
37356;DHT22;48747;50.250;18.848;2023-08-06T06:26:23;16.60;99.90
37356;DHT22;48747;50.250;18.848;2023-08-06T06:28:29;16.60;99.90
37356;DHT22;48747;50.250;18.848;2023-08-06T06:30:33;16.60;99.90
37356;DHT22;48747;50.250;18.848;2023-08-06T06:32:36;16.60;99.90
37356;DHT22;48747;50.250;18.848;2023-08-06T06:34:40;16.60;99.90
37356;DHT22;48747;50.250;18.848;2023-08-06T06:36:43;16.60;99.90
37356;DHT22;48747;50.250;18.848;2023-08-06T06:38:47;16.60;99.90
37356;DHT22;48747;50.250;18.848;2023-08-06T06:40:55;16.60;99.90
37356;DHT22;48747;50.250;18.848;2023-08-06T06:42:58;16.60;99.90
37356;DHT22;48747;50.250;18.848;2023-08-06T06:45:03;16.60;99.90
37356;DHT22;48747;50.250;18.848;2023-08-06T06:47:10;16.60;99.90
37356;DHT22;48747;50.250;18.848;2023-08-06T06:49:11;16.60;99.90
37356;DHT22;48747;50.250;18.848;2023-08-06T06:51:14;16.60;99.90
37356;DHT22;48747;50.250;18.848;2023-08-06T06:53:17;16.50;99.90
37356;DHT22;48747;50.250;18.848;2023-08-06T06:55:20;16.50;99.90
37356;DHT22;48747;50.250;18.848;2023-08-06T06:57:23;16.40;99.90
37356;DHT22;48747;50.250;18.848;2023-08-06T06:59:26;16.40;99.90
37356;DHT22;48747;50.250;18.848;2023-08-06T07:01:29;16.50;99.90
37356;DHT22;48747;50.250;18.848;2023-08-06T07:03:33;16.50;99.90
37356;DHT22;48747;50.250;18.848;2023-08-06T07:05:36;16.50;99.90
37356;DHT22;48747;50.250;18.848;2023-08-06T07:07:39;16.50;99.90
37356;DHT22;48747;50.250;18.848;2023-08-06T07:09:42;16.40;99.90
37356;DHT22;48747;50.250;18.848;2023-08-06T07:11:50;16.40;99.90
37356;DHT22;48747;50.250;18.848;2023-08-06T07:13:57;16.40;99.90
37356;DHT22;48747;50.250;18.848;2023-08-06T07:16:01;16.40;99.90
37356;DHT22;48747;50.250;18.848;2023-08-06T07:18:07;16.40;99.90
37356;DHT22;48747;50.250;18.848;2023-08-06T07:20:11;16.40;99.90
37356;DHT22;48747;50.250;18.848;2023-08-06T07:22:14;16.30;99.90
37356;DHT22;48747;50.250;18.848;2023-08-06T07:24:17;16.40;99.90
37356;DHT22;48747;50.250;18.848;2023-08-06T07:26:21;16.30;99.90
37356;DHT22;48747;50.250;18.848;2023-08-06T07:28:24;16.30;99.90
37356;DHT22;48747;50.250;18.848;2023-08-06T07:30:41;16.30;99.90
37356;DHT22;48747;50.250;18.848;2023-08-06T07:32:39;16.30;99.90
37356;DHT22;48747;50.250;18.848;2023-08-06T07:34:42;16.20;99.90
37356;DHT22;48747;50.250;18.848;2023-08-06T07:36:46;16.20;99.90
37356;DHT22;48747;50.250;18.848;2023-08-06T07:38:50;16.10;99.90
37356;DHT22;48747;50.250;18.848;2023-08-06T07:40:54;16.10;99.90
37356;DHT22;48747;50.250;18.848;2023-08-06T07:42:57;16.20;99.90
37356;DHT22;48747;50.250;18.848;2023-08-06T07:45:02;16.10;99.90
37356;DHT22;48747;50.250;18.848;2023-08-06T07:47:05;16.10;99.90
37356;DHT22;48747;50.250;18.848;2023-08-06T07:49:10;16.00;99.90
37356;DHT22;48747;50.250;18.848;2023-08-06T07:51:16;16.00;99.90
37356;DHT22;48747;50.250;18.848;2023-08-06T07:53:20;15.90;99.90
37356;DHT22;48747;50.250;18.848;2023-08-06T07:55:23;15.80;99.90
37356;DHT22;48747;50.250;18.848;2023-08-06T07:57:29;15.80;99.90
37356;DHT22;48747;50.250;18.848;2023-08-06T07:59:32;15.80;99.90
37356;DHT22;48747;50.250;18.848;2023-08-06T08:01:35;15.80;99.90
37356;DHT22;48747;50.250;18.848;2023-08-06T08:03:44;15.80;99.90
37356;DHT22;48747;50.250;18.848;2023-08-06T08:05:43;15.80;99.90
37356;DHT22;48747;50.250;18.848;2023-08-06T08:07:47;15.80;99.90
37356;DHT22;48747;50.250;18.848;2023-08-06T08:09:50;15.70;99.90
37356;DHT22;48747;50.250;18.848;2023-08-06T08:11:53;15.70;99.90
37356;DHT22;48747;50.250;18.848;2023-08-06T08:13:56;15.60;99.90
37356;DHT22;48747;50.250;18.848;2023-08-06T08:15:59;15.60;99.90
37356;DHT22;48747;50.250;18.848;2023-08-06T08:18:03;15.60;99.90
37356;DHT22;48747;50.250;18.848;2023-08-06T08:20:06;15.60;99.90
37356;DHT22;48747;50.250;18.848;2023-08-06T08:22:11;15.60;99.90
37356;DHT22;48747;50.250;18.848;2023-08-06T08:24:14;15.60;99.90
37356;DHT22;48747;50.250;18.848;2023-08-06T08:26:19;15.70;99.90
37356;DHT22;48747;50.250;18.848;2023-08-06T08:28:24;15.70;99.90
37356;DHT22;48747;50.250;18.848;2023-08-06T08:33:06;15.70;99.90
37356;DHT22;48747;50.250;18.848;2023-08-06T08:35:10;15.80;99.90
37356;DHT22;48747;50.250;18.848;2023-08-06T08:37:14;15.80;99.90
37356;DHT22;48747;50.250;18.848;2023-08-06T08:39:17;15.90;99.90
37356;DHT22;48747;50.250;18.848;2023-08-06T08:41:20;16.00;99.90
37356;DHT22;48747;50.250;18.848;2023-08-06T08:43:24;16.00;99.90
37356;DHT22;48747;50.250;18.848;2023-08-06T08:45:29;16.10;99.90
37356;DHT22;48747;50.250;18.848;2023-08-06T08:47:32;16.10;99.90
37356;DHT22;48747;50.250;18.848;2023-08-06T08:49:36;16.20;99.90
37356;DHT22;48747;50.250;18.848;2023-08-06T08:51:39;16.20;99.90
37356;DHT22;48747;50.250;18.848;2023-08-06T08:53:44;16.20;99.90
37356;DHT22;48747;50.250;18.848;2023-08-06T08:55:49;16.20;99.90
37356;DHT22;48747;50.250;18.848;2023-08-06T08:57:52;16.20;99.90
37356;DHT22;48747;50.250;18.848;2023-08-06T08:59:55;16.10;99.90
37356;DHT22;48747;50.250;18.848;2023-08-06T09:02:00;16.10;99.90
37356;DHT22;48747;50.250;18.848;2023-08-06T09:04:05;16.00;99.90
37356;DHT22;48747;50.250;18.848;2023-08-06T09:06:08;16.00;99.90
37356;DHT22;48747;50.250;18.848;2023-08-06T09:08:15;16.10;99.90
37356;DHT22;48747;50.250;18.848;2023-08-06T09:10:20;16.10;99.90
37356;DHT22;48747;50.250;18.848;2023-08-06T09:12:27;16.10;99.90
37356;DHT22;48747;50.250;18.848;2023-08-06T09:14:30;16.20;99.90
37356;DHT22;48747;50.250;18.848;2023-08-06T09:16:35;16.10;99.90
37356;DHT22;48747;50.250;18.848;2023-08-06T09:18:39;16.10;99.90
37356;DHT22;48747;50.250;18.848;2023-08-06T09:20:42;16.10;99.90
37356;DHT22;48747;50.250;18.848;2023-08-06T09:22:47;16.10;99.90
37356;DHT22;48747;50.250;18.848;2023-08-06T09:24:53;16.10;99.90
37356;DHT22;48747;50.250;18.848;2023-08-06T09:26:59;16.00;99.90
37356;DHT22;48747;50.250;18.848;2023-08-06T09:29:06;15.90;99.90
37356;DHT22;48747;50.250;18.848;2023-08-06T09:31:10;15.90;99.90
37356;DHT22;48747;50.250;18.848;2023-08-06T09:33:17;15.80;99.90
37356;DHT22;48747;50.250;18.848;2023-08-06T09:35:19;15.80;99.90
37356;DHT22;48747;50.250;18.848;2023-08-06T09:37:23;15.80;99.90
37356;DHT22;48747;50.250;18.848;2023-08-06T09:39:30;15.80;99.90
37356;DHT22;48747;50.250;18.848;2023-08-06T09:41:34;15.80;99.90
37356;DHT22;48747;50.250;18.848;2023-08-06T09:43:44;15.90;99.90
37356;DHT22;48747;50.250;18.848;2023-08-06T09:45:47;15.90;99.90
37356;DHT22;48747;50.250;18.848;2023-08-06T09:47:55;15.80;99.90
37356;DHT22;48747;50.250;18.848;2023-08-06T09:49:57;15.80;99.90
37356;DHT22;48747;50.250;18.848;2023-08-06T09:52:00;15.80;99.90
37356;DHT22;48747;50.250;18.848;2023-08-06T09:54:04;15.80;99.90
37356;DHT22;48747;50.250;18.848;2023-08-06T09:56:09;15.70;99.90
37356;DHT22;48747;50.250;18.848;2023-08-06T09:58:12;15.80;99.90
37356;DHT22;48747;50.250;18.848;2023-08-06T10:00:17;15.90;99.90
37356;DHT22;48747;50.250;18.848;2023-08-06T10:02:22;15.90;99.90
37356;DHT22;48747;50.250;18.848;2023-08-06T10:04:27;16.00;99.90
37356;DHT22;48747;50.250;18.848;2023-08-06T10:06:34;16.10;99.90
37356;DHT22;48747;50.250;18.848;2023-08-06T10:08:40;16.10;99.90
37356;DHT22;48747;50.250;18.848;2023-08-06T10:10:45;16.10;99.90
37356;DHT22;48747;50.250;18.848;2023-08-06T10:12:54;16.10;99.90
37356;DHT22;48747;50.250;18.848;2023-08-06T10:14:59;16.10;99.90
37356;DHT22;48747;50.250;18.848;2023-08-06T10:17:03;16.10;99.90
37356;DHT22;48747;50.250;18.848;2023-08-06T10:19:11;16.10;99.90
37356;DHT22;48747;50.250;18.848;2023-08-06T10:21:15;16.10;99.90
37356;DHT22;48747;50.250;18.848;2023-08-06T10:23:18;16.30;99.90
37356;DHT22;48747;50.250;18.848;2023-08-06T10:25:24;16.30;99.90
37356;DHT22;48747;50.250;18.848;2023-08-06T10:29:42;16.30;99.90
37356;DHT22;48747;50.250;18.848;2023-08-06T10:31:55;16.30;99.90
37356;DHT22;48747;50.250;18.848;2023-08-06T10:33:59;16.20;99.90
37356;DHT22;48747;50.250;18.848;2023-08-06T10:36:03;16.20;99.90
37356;DHT22;48747;50.250;18.848;2023-08-06T10:38:11;16.20;99.90
37356;DHT22;48747;50.250;18.848;2023-08-06T10:40:20;16.20;99.90
37356;DHT22;48747;50.250;18.848;2023-08-06T10:42:27;16.30;99.90
37356;DHT22;48747;50.250;18.848;2023-08-06T10:44:30;16.20;99.90
37356;DHT22;48747;50.250;18.848;2023-08-06T10:46:33;16.20;99.90
37356;DHT22;48747;50.250;18.848;2023-08-06T10:48:38;16.20;99.90
37356;DHT22;48747;50.250;18.848;2023-08-06T10:50:42;16.20;99.90
37356;DHT22;48747;50.250;18.848;2023-08-06T10:52:46;16.30;99.90
37356;DHT22;48747;50.250;18.848;2023-08-06T10:54:49;16.30;99.90
37356;DHT22;48747;50.250;18.848;2023-08-06T10:56:52;16.20;99.90
37356;DHT22;48747;50.250;18.848;2023-08-06T10:58:56;16.20;99.90
37356;DHT22;48747;50.250;18.848;2023-08-06T11:00:59;16.30;99.90
37356;DHT22;48747;50.250;18.848;2023-08-06T11:03:03;16.30;99.90
37356;DHT22;48747;50.250;18.848;2023-08-06T11:05:07;16.40;99.90
37356;DHT22;48747;50.250;18.848;2023-08-06T11:07:11;16.40;99.90
37356;DHT22;48747;50.250;18.848;2023-08-06T11:09:16;16.40;99.90
37356;DHT22;48747;50.250;18.848;2023-08-06T11:11:19;16.30;99.90
37356;DHT22;48747;50.250;18.848;2023-08-06T11:13:22;16.30;99.90
37356;DHT22;48747;50.250;18.848;2023-08-06T11:15:27;16.40;99.90
37356;DHT22;48747;50.250;18.848;2023-08-06T11:17:32;16.40;99.90
37356;DHT22;48747;50.250;18.848;2023-08-06T11:19:35;16.40;99.90
37356;DHT22;48747;50.250;18.848;2023-08-06T11:21:40;16.30;99.90
37356;DHT22;48747;50.250;18.848;2023-08-06T11:23:44;16.30;99.90
37356;DHT22;48747;50.250;18.848;2023-08-06T11:25:47;16.30;99.90
37356;DHT22;48747;50.250;18.848;2023-08-06T11:27:50;16.30;99.90
37356;DHT22;48747;50.250;18.848;2023-08-06T11:29:54;16.10;99.90
37356;DHT22;48747;50.250;18.848;2023-08-06T11:32:04;16.20;99.90
37356;DHT22;48747;50.250;18.848;2023-08-06T11:34:07;16.20;99.90
37356;DHT22;48747;50.250;18.848;2023-08-06T11:36:11;16.30;99.90
37356;DHT22;48747;50.250;18.848;2023-08-06T11:38:14;16.30;99.90
37356;DHT22;48747;50.250;18.848;2023-08-06T11:40:18;16.30;99.90
37356;DHT22;48747;50.250;18.848;2023-08-06T11:42:21;16.30;99.90
37356;DHT22;48747;50.250;18.848;2023-08-06T11:44:25;16.20;99.90
37356;DHT22;48747;50.250;18.848;2023-08-06T11:46:29;16.30;99.90
37356;DHT22;48747;50.250;18.848;2023-08-06T11:48:32;16.40;99.90
37356;DHT22;48747;50.250;18.848;2023-08-06T11:50:37;16.30;99.90
37356;DHT22;48747;50.250;18.848;2023-08-06T11:52:43;16.30;99.90
37356;DHT22;48747;50.250;18.848;2023-08-06T11:55:09;16.40;99.90
37356;DHT22;48747;50.250;18.848;2023-08-06T12:01:17;16.50;99.90
37356;DHT22;48747;50.250;18.848;2023-08-06T12:03:23;16.60;99.90
37356;DHT22;48747;50.250;18.848;2023-08-06T12:05:37;16.70;99.90
37356;DHT22;48747;50.250;18.848;2023-08-06T12:07:52;16.70;99.90
37356;DHT22;48747;50.250;18.848;2023-08-06T12:09:55;16.80;99.90
37356;DHT22;48747;50.250;18.848;2023-08-06T12:11:58;16.80;99.90
37356;DHT22;48747;50.250;18.848;2023-08-06T12:14:01;16.80;99.90
37356;DHT22;48747;50.250;18.848;2023-08-06T12:16:04;16.80;99.90
37356;DHT22;48747;50.250;18.848;2023-08-06T12:18:07;16.80;99.90
37356;DHT22;48747;50.250;18.848;2023-08-06T12:20:12;16.80;99.90
37356;DHT22;48747;50.250;18.848;2023-08-06T12:22:15;16.70;99.90
37356;DHT22;48747;50.250;18.848;2023-08-06T12:24:18;16.70;99.90
37356;DHT22;48747;50.250;18.848;2023-08-06T12:26:21;16.70;99.90
37356;DHT22;48747;50.250;18.848;2023-08-06T12:28:24;16.70;99.90
37356;DHT22;48747;50.250;18.848;2023-08-06T12:32:45;16.80;99.90
37356;DHT22;48747;50.250;18.848;2023-08-06T12:34:44;16.90;99.90
37356;DHT22;48747;50.250;18.848;2023-08-06T12:36:49;16.80;99.90
37356;DHT22;48747;50.250;18.848;2023-08-06T12:38:54;16.80;99.90
37356;DHT22;48747;50.250;18.848;2023-08-06T12:40:57;16.90;99.90
37356;DHT22;48747;50.250;18.848;2023-08-06T12:43:00;17.00;99.90
37356;DHT22;48747;50.250;18.848;2023-08-06T12:45:04;17.10;99.90
37356;DHT22;48747;50.250;18.848;2023-08-06T12:47:10;17.20;99.90
37356;DHT22;48747;50.250;18.848;2023-08-06T12:49:13;17.20;99.90
37356;DHT22;48747;50.250;18.848;2023-08-06T12:51:17;17.10;99.90
37356;DHT22;48747;50.250;18.848;2023-08-06T12:53:21;17.00;99.90
37356;DHT22;48747;50.250;18.848;2023-08-06T12:55:25;16.90;99.90
37356;DHT22;48747;50.250;18.848;2023-08-06T12:57:28;16.90;99.90
37356;DHT22;48747;50.250;18.848;2023-08-06T12:59:31;16.90;99.90
37356;DHT22;48747;50.250;18.848;2023-08-06T13:01:45;16.90;99.90
37356;DHT22;48747;50.250;18.848;2023-08-06T13:03:52;16.80;99.90
37356;DHT22;48747;50.250;18.848;2023-08-06T13:05:58;16.80;99.90
37356;DHT22;48747;50.250;18.848;2023-08-06T13:07:57;16.80;99.90